Time;durP1;ratioP1;P1;durP2;ratioP2;P2;SDS_P1;SDS_P2;PMS_P1;PMS_P2;Temp;Humidity;BMP_temperature;BMP_pressure;BME280_temperature;BME280_humidity;BME280_pressure;Samples;Min_cycle;Max_cycle;Signal;HPM_P1;HPM_P2
2021/12/18 00:00:40;;;;;;;8.85;5.00;;;;;;;8.46;93.99;104121.56;5076022;28;20154;-68
2021/12/18 00:03:06;;;;;;;9.45;5.40;;;;;;;8.49;94.45;104114.50;5058020;28;20027;-68
2021/12/18 00:05:32;;;;;;;8.75;5.30;;;;;;;8.52;93.98;104126.38;5058051;28;20390;-68
2021/12/18 00:07:58;;;;;;;10.70;5.72;;;;;;;8.57;93.82;104127.75;5075973;28;20024;-68
2021/12/18 00:10:24;;;;;;;9.20;5.35;;;;;;;8.62;93.87;104121.47;5075952;28;20151;-68
2021/12/18 00:12:50;;;;;;;9.75;5.47;;;;;;;8.50;93.34;104123.88;5057885;28;20028;-68
2021/12/18 00:15:23;;;;;;;10.60;5.68;;;;;;;8.48;94.10;104119.72;5057929;28;20031;-70
2021/12/18 00:17:49;;;;;;;10.57;5.45;;;;;;;8.51;93.75;104122.94;5074854;28;20095;-67
2021/12/18 00:20:15;;;;;;;10.32;5.82;;;;;;;8.52;93.28;104113.50;5057835;28;20040;-67
2021/12/18 00:22:40;;;;;;;11.02;5.75;;;;;;;8.47;93.39;104103.44;5057681;28;20036;-68
2021/12/18 00:25:06;;;;;;;8.95;5.63;;;;;;;8.53;93.85;104102.25;5075693;28;20467;-68
2021/12/18 00:27:31;;;;;;;7.72;4.88;;;;;;;8.44;93.55;104108.78;5075632;28;20024;-68
2021/12/18 00:29:57;;;;;;;9.25;5.03;;;;;;;8.51;93.24;104099.75;5075572;28;20483;-67
2021/12/18 00:32:22;;;;;;;9.52;5.20;;;;;;;8.51;92.92;104104.06;5057596;28;20024;-68
2021/12/18 00:34:47;;;;;;;8.55;5.05;;;;;;;8.55;92.99;104097.84;5075308;28;20131;-68
2021/12/18 00:37:13;;;;;;;9.23;5.05;;;;;;;8.44;92.59;104097.66;5075614;28;20086;-67
2021/12/18 00:39:51;;;;;;;10.60;4.93;;;;;;;8.33;94.30;104093.91;5075365;28;20079;-68
2021/12/18 00:42:26;;;;;;;9.00;4.78;;;;;;;8.28;94.85;104092.53;5075399;28;20402;-69
2021/12/18 00:44:51;;;;;;;10.80;5.43;;;;;;;8.38;94.61;104095.41;5075320;28;20017;-69
2021/12/18 00:47:17;;;;;;;10.70;5.68;;;;;;;8.44;94.23;104087.34;5057192;28;20027;-69
2021/12/18 00:49:42;;;;;;;13.30;5.97;;;;;;;8.50;94.31;104090.38;5075225;28;20052;-68
2021/12/18 00:52:08;;;;;;;10.02;5.22;;;;;;;8.48;93.66;104099.94;5075221;28;20028;-68
2021/12/18 00:54:35;;;;;;;9.70;5.32;;;;;;;8.57;93.33;104099.41;5075558;28;20109;-68
2021/12/18 00:57:00;;;;;;;12.00;5.28;;;;;;;8.50;92.67;104092.13;5056965;28;20027;-68
2021/12/18 00:59:26;;;;;;;12.32;5.38;;;;;;;8.47;93.22;104100.84;5057191;28;20028;-68
2021/12/18 01:01:51;;;;;;;9.15;5.22;;;;;;;8.44;93.76;104098.47;5074993;28;20068;-68
2021/12/18 01:04:17;;;;;;;8.98;5.45;;;;;;;8.44;93.64;104102.81;5056915;28;20024;-68
2021/12/18 01:06:43;;;;;;;7.85;4.85;;;;;;;8.36;92.79;104105.78;5056892;28;20023;-68
2021/12/18 01:09:08;;;;;;;10.30;5.05;;;;;;;8.46;92.70;104103.50;5074735;28;20460;-69
2021/12/18 01:11:40;;;;;;;9.10;5.10;;;;;;;8.45;93.39;104107.84;5056809;28;20020;-67
2021/12/18 01:14:25;;;;;;;8.30;5.13;;;;;;;8.52;93.29;104106.56;5074874;28;20020;-67
2021/12/18 01:24:45;;;;;;;9.70;4.95;;;;;;;8.45;92.89;104101.88;5075349;28;20502;-67
2021/12/18 01:27:10;;;;;;;9.55;4.72;;;;;;;8.47;92.61;104105.19;5056212;28;20017;-68
2021/12/18 01:29:35;;;;;;;7.85;4.20;;;;;;;8.42;92.80;104115.75;5056329;28;20063;-68
2021/12/18 01:32:01;;;;;;;8.38;4.70;;;;;;;8.43;92.31;104109.72;5074366;28;20051;-67
2021/12/18 01:34:26;;;;;;;9.60;5.00;;;;;;;8.35;93.03;104104.16;5055983;28;20384;-68
2021/12/18 01:36:51;;;;;;;11.48;5.38;;;;;;;8.24;93.34;104114.25;5074102;28;20452;-68
2021/12/18 01:39:17;;;;;;;11.80;4.57;;;;;;;8.17;93.07;104115.50;5074097;28;20127;-68
2021/12/18 01:42:08;;;;;;;10.48;5.10;;;;;;;8.22;93.68;104095.47;5073997;28;20032;-68
2021/12/18 01:52:41;;;;;;;8.60;4.30;;;;;;;8.38;92.65;104090.25;5074634;28;20035;-68
2021/12/18 01:55:08;;;;;;;7.45;4.28;;;;;;;8.35;93.50;104096.41;5073683;28;20031;-68
2021/12/18 01:57:34;;;;;;;7.47;4.25;;;;;;;8.41;92.48;104090.09;5073678;28;20028;-68
2021/12/18 01:59:59;;;;;;;8.38;4.38;;;;;;;8.36;93.09;104090.31;5055784;28;20075;-68
2021/12/18 02:02:25;;;;;;;8.88;4.50;;;;;;;8.38;92.66;104098.81;5055690;28;20108;-68
2021/12/18 02:04:51;;;;;;;7.93;4.35;;;;;;;8.30;92.65;104094.09;5055702;28;20114;-68
2021/12/18 02:07:16;;;;;;;9.52;4.65;;;;;;;8.34;92.83;104092.16;5073620;28;20158;-68
2021/12/18 02:12:08;;;;;;;9.82;4.32;;;;;;;8.38;92.74;104098.81;5073568;28;20036;-68
2021/12/18 02:19:32;;;;;;;7.55;4.53;;;;;;;8.37;92.18;104097.13;5055599;28;20138;-67
2021/12/18 02:22:55;;;;;;;9.20;4.60;;;;;;;8.33;92.85;104090.50;5074287;28;20348;-68
2021/12/18 02:25:23;;;;;;;7.75;4.80;;;;;;;8.29;92.68;104092.44;5073400;28;20051;-68
2021/12/18 02:27:49;;;;;;;8.18;4.18;;;;;;;8.31;91.90;104085.44;5055383;28;20020;-69
2021/12/18 02:30:16;;;;;;;7.75;4.20;;;;;;;8.24;92.68;104083.34;5073620;28;20020;-69
2021/12/18 02:32:41;;;;;;;9.43;4.57;;;;;;;8.24;92.38;104089.31;5073314;28;20024;-68
2021/12/18 02:35:09;;;;;;;7.85;4.30;;;;;;;8.26;92.70;104084.06;5073066;28;20056;-69
2021/12/18 02:37:40;;;;;;;8.57;4.00;;;;;;;8.22;91.54;104082.59;5073173;28;20028;-68
2021/12/18 02:42:34;;;;;;;7.10;3.80;;;;;;;8.23;91.42;104091.97;5073616;28;20035;-68
2021/12/18 02:45:01;;;;;;;8.15;4.13;;;;;;;7.95;92.33;104085.84;5073495;28;20024;-68
2021/12/18 02:47:26;;;;;;;6.85;3.80;;;;;;;7.78;93.01;104088.56;5055220;28;20104;-68
2021/12/18 02:49:52;;;;;;;7.53;3.88;;;;;;;7.84;92.30;104077.91;5073195;28;20111;-68
2021/12/18 02:52:19;;;;;;;8.38;4.60;;;;;;;7.95;92.90;104077.31;5073139;28;20455;-69
2021/12/18 02:54:45;;;;;;;7.70;4.20;;;;;;;7.95;92.98;104079.88;5055086;28;20024;-67
2021/12/18 02:57:11;;;;;;;9.80;4.60;;;;;;;7.78;93.74;104075.69;5055052;28;20028;-68
2021/12/18 02:59:48;;;;;;;8.38;4.43;;;;;;;7.75;94.14;104066.41;5073000;28;20035;-68
2021/12/18 03:02:15;;;;;;;10.00;5.00;;;;;;;7.78;95.14;104062.81;5073396;28;20028;-67
2021/12/18 03:04:43;;;;;;;9.95;4.60;;;;;;;7.86;94.73;104058.91;5055083;28;20032;-67
2021/12/18 03:07:11;;;;;;;9.20;4.97;;;;;;;7.80;94.78;104069.56;5072944;28;20031;-68
2021/12/18 03:25:37;;;;;;;8.02;3.45;;;;;;;7.85;94.86;104071.84;5073135;28;20037;-68
2021/12/18 03:28:04;;;;;;;7.65;3.88;;;;;;;7.87;94.03;104076.00;5054750;28;20029;-68
2021/12/18 03:30:31;;;;;;;6.90;3.40;;;;;;;7.79;93.67;104072.19;5072704;28;20380;-68
2021/12/18 03:32:56;;;;;;;6.53;3.40;;;;;;;7.83;93.74;104068.56;5073445;28;20032;-68
2021/12/18 03:35:22;;;;;;;10.40;3.33;;;;;;;7.69;93.12;104069.34;5072607;28;20048;-70
2021/12/18 03:37:48;;;;;;;6.30;3.15;;;;;;;7.77;93.71;104076.59;5054720;28;20082;-70
2021/12/18 03:40:18;;;;;;;6.90;3.20;;;;;;;7.83;94.23;104081.44;5072718;28;20021;-69
2021/12/18 03:42:44;;;;;;;5.10;2.60;;;;;;;7.53;92.16;104082.22;5072598;28;20030;-68
2021/12/18 03:45:11;;;;;;;5.32;2.53;;;;;;;7.61;93.00;104059.47;5054666;28;20024;-69
2021/12/18 03:47:37;;;;;;;4.90;2.60;;;;;;;7.65;93.35;104071.25;5054601;28;20024;-70
2021/12/18 03:50:03;;;;;;;5.72;2.80;;;;;;;7.68;93.85;104070.22;5072639;28;20025;-68
2021/12/18 03:52:29;;;;;;;5.13;2.70;;;;;;;7.61;93.57;104069.75;5074724;28;20525;-68
2021/12/18 03:54:54;;;;;;;5.30;2.70;;;;;;;7.54;93.22;104073.59;5076086;28;20016;-69
2021/12/18 03:57:19;;;;;;;5.57;2.92;;;;;;;7.52;93.54;104067.72;5076052;28;20051;-68
2021/12/18 03:59:44;;;;;;;4.45;2.30;;;;;;;7.60;93.69;104075.84;5076037;28;20024;-69
2021/12/18 04:02:10;;;;;;;4.53;2.60;;;;;;;7.56;93.64;104074.34;5075977;28;20455;-69
2021/12/18 04:04:35;;;;;;;5.28;2.83;;;;;;;7.57;93.31;104081.16;5075951;28;20107;-69
2021/12/18 04:07:01;;;;;;;5.88;2.83;;;;;;;7.52;93.61;104067.72;5075948;28;20028;-68
2021/12/18 04:09:28;;;;;;;4.78;2.47;;;;;;;7.56;93.74;104074.34;5075868;28;20028;-69
2021/12/18 04:11:54;;;;;;;4.95;2.58;;;;;;;7.58;92.99;104072.50;5057897;28;20093;-70
2021/12/18 04:14:20;;;;;;;5.85;2.45;;;;;;;7.59;92.48;104079.31;5057808;28;20107;-69
2021/12/18 04:16:45;;;;;;;4.28;2.22;;;;;;;7.53;93.04;104071.94;5075630;28;20051;-69
2021/12/18 04:19:10;;;;;;;4.50;2.28;;;;;;;7.54;92.64;104071.03;5076234;28;20024;-70
2021/12/18 04:21:36;;;;;;;4.22;2.15;;;;;;;7.36;93.47;104066.91;5057715;28;20031;-68
2021/12/18 04:24:03;;;;;;;3.72;1.92;;;;;;;7.31;93.19;104064.59;5076179;28;20089;-68
2021/12/18 04:26:29;;;;;;;3.42;1.80;;;;;;;7.33;92.52;104072.22;5075568;28;20024;-69
2021/12/18 04:28:54;;;;;;;2.85;1.60;;;;;;;7.13;93.57;104063.03;5075501;28;20494;-68
2021/12/18 04:31:19;;;;;;;4.70;2.00;;;;;;;7.13;93.45;104060.44;5057521;28;20029;-71
2021/12/18 04:33:45;;;;;;;3.47;1.80;;;;;;;7.18;93.74;104066.19;5057500;28;20027;-68
2021/12/18 04:36:10;;;;;;;3.78;2.00;;;;;;;7.30;93.55;104068.06;5075223;28;20106;-68
2021/12/18 04:38:35;;;;;;;7.35;1.73;;;;;;;7.23;93.01;104061.63;5075581;28;20038;-70
2021/12/18 04:41:03;;;;;;;4.35;1.77;;;;;;;7.24;92.84;104069.22;5075304;28;20024;-70
2021/12/18 04:43:29;;;;;;;3.17;1.98;;;;;;;7.25;93.40;104064.94;5057287;28;20372;-69
2021/12/18 04:45:55;;;;;;;5.60;1.67;;;;;;;7.24;93.09;104069.22;5075168;28;20439;-69
2021/12/18 04:48:20;;;;;;;3.28;1.67;;;;;;;7.19;93.72;104071.25;5075148;28;20103;-69
2021/12/18 04:50:45;;;;;;;2.80;1.60;;;;;;;7.20;93.11;104075.47;5075085;28;20047;-69
2021/12/18 04:53:11;;;;;;;5.13;1.50;;;;;;;7.20;92.50;104075.47;5057085;28;20413;-69
2021/12/18 04:55:36;;;;;;;2.53;1.48;;;;;;;7.09;92.72;104082.13;5056990;28;20024;-69
2021/12/18 04:58:02;;;;;;;2.10;1.00;;;;;;;7.03;92.15;104085.03;5074894;28;20074;-69
2021/12/18 05:00:37;;;;;;;4.80;1.23;;;;;;;6.96;92.70;104079.34;5056895;28;20086;-69
2021/12/18 05:03:05;;;;;;;2.63;1.30;;;;;;;6.89;93.29;104089.16;5074442;28;20036;-70
2021/12/18 05:05:32;;;;;;;2.78;1.25;;;;;;;6.70;92.83;104088.47;5056832;28;20028;-69
2021/12/18 05:07:57;;;;;;;7.75;1.10;;;;;;;6.75;93.01;104089.88;5056809;28;20098;-68
2021/12/18 05:10:23;;;;;;;1.77;1.20;;;;;;;6.75;93.54;104089.06;5056684;28;20471;-68
2021/12/18 05:12:48;;;;;;;11.65;1.38;;;;;;;6.61;93.49;104089.75;5074657;28;20380;-70
2021/12/18 05:15:13;;;;;;;16.67;1.65;;;;;;;6.71;94.22;104093.53;5056646;28;20032;-69
2021/12/18 05:17:39;;;;;;;20.80;1.88;;;;;;;6.81;94.08;104087.91;5074478;28;20031;-69
2021/12/18 05:20:05;;;;;;;18.45;1.52;;;;;;;6.87;93.57;104095.28;5056541;28;20119;-70
2021/12/18 05:22:30;;;;;;;11.02;1.33;;;;;;;6.89;93.04;104094.28;5074301;28;20028;-68
2021/12/18 05:24:55;;;;;;;5.85;3.22;;;;;;;6.86;93.04;104096.19;5074697;28;20074;-68
2021/12/18 05:27:21;;;;;;;7.80;1.75;;;;;;;6.58;92.32;104084.78;5074350;28;20070;-69
2021/12/18 05:29:46;;;;;;;2.97;1.85;;;;;;;6.73;93.49;104091.72;5074847;28;20102;-70
2021/12/18 05:32:11;;;;;;;6.22;1.50;;;;;;;6.80;92.80;104092.22;5074182;28;20383;-69
2021/12/18 05:34:37;;;;;;;3.10;1.45;;;;;;;6.59;91.89;104091.59;5056175;28;20040;-68
2021/12/18 05:39:37;;;;;;;6.45;1.38;;;;;;;6.48;92.41;104096.47;5074472;28;20028;-68
2021/12/18 05:42:03;;;;;;;2.35;1.25;;;;;;;6.52;91.96;104095.38;5074060;28;20036;-68
2021/12/18 05:44:28;;;;;;;3.55;1.10;;;;;;;6.41;92.37;104090.78;5056066;28;20082;-70
2021/12/18 05:46:54;;;;;;;3.72;1.55;;;;;;;6.60;92.01;104093.25;5074458;28;20518;-69
2021/12/18 05:49:20;;;;;;;48.10;2.83;;;;;;;6.61;92.20;104083.81;5073952;28;20178;-68
2021/12/18 05:51:45;;;;;;;11.13;1.50;;;;;;;6.41;92.37;104090.78;5073844;28;20052;-68
2021/12/18 05:54:12;;;;;;;12.63;1.90;;;;;;;6.45;93.00;104087.19;5073810;28;20073;-69
2021/12/18 05:56:38;;;;;;;8.95;1.70;;;;;;;6.41;92.85;104079.69;5073796;28;20024;-69
2021/12/18 05:59:04;;;;;;;4.13;1.40;;;;;;;6.48;92.97;104083.63;5055980;28;20078;-69
2021/12/18 06:01:30;;;;;;;2.90;1.60;;;;;;;6.41;92.62;104083.09;5074927;28;20070;-69
2021/12/18 06:03:55;;;;;;;2.05;1.15;;;;;;;6.35;92.78;104090.28;5075056;28;20024;-69
2021/12/18 06:06:22;;;;;;;2.90;1.23;;;;;;;6.36;92.14;104089.38;5057048;28;20020;-71
2021/12/18 06:08:48;;;;;;;3.15;1.58;;;;;;;6.32;92.53;104083.56;5056839;28;20020;-72
2021/12/18 06:11:17;;;;;;;3.22;2.03;;;;;;;6.38;92.58;104085.81;5074834;28;20056;-70
2021/12/18 06:13:44;;;;;;;5.10;2.17;;;;;;;6.39;92.97;104087.50;5074155;28;20024;-71
2021/12/18 06:16:10;;;;;;;5.60;1.80;;;;;;;6.32;93.02;104086.94;5074447;28;20024;-72
2021/12/18 06:18:37;;;;;;;4.22;1.70;;;;;;;6.32;92.93;104092.09;5075367;28;20074;-68
2021/12/18 06:21:03;;;;;;;2.83;1.60;;;;;;;6.41;93.18;104085.66;5073891;28;20051;-69
2021/12/18 06:23:29;;;;;;;4.18;1.70;;;;;;;6.40;93.12;104080.59;5073853;28;20130;-69
2021/12/18 06:25:55;;;;;;;7.45;1.50;;;;;;;6.38;92.76;104077.28;5055964;28;20043;-68
2021/12/18 06:28:20;;;;;;;2.67;1.58;;;;;;;6.45;92.14;104083.78;5073625;28;20039;-69
2021/12/18 06:30:46;;;;;;;7.10;1.60;;;;;;;6.35;91.86;104082.56;5073628;28;20048;-69
2021/12/18 06:33:11;;;;;;;6.50;1.80;;;;;;;6.19;92.67;104077.41;5055637;28;20028;-70
2021/12/18 06:35:36;;;;;;;4.20;1.70;;;;;;;6.27;92.07;104086.38;5073618;28;20080;-71
2021/12/18 06:38:02;;;;;;;5.20;1.80;;;;;;;6.34;92.78;104081.75;5073528;28;20485;-69
2021/12/18 06:40:27;;;;;;;3.03;1.60;;;;;;;6.36;92.07;104084.22;5055674;28;20394;-69
2021/12/18 06:42:53;;;;;;;5.82;1.88;;;;;;;6.15;92.09;104091.28;5074379;28;20021;-70
2021/12/18 06:45:18;;;;;;;8.93;1.63;;;;;;;5.97;92.35;104082.75;5073563;28;20131;-70
2021/12/18 06:47:43;;;;;;;2.30;1.08;;;;;;;5.72;92.88;104093.34;5055889;28;20424;-70
2021/12/18 06:50:09;;;;;;;3.80;1.60;;;;;;;5.93;93.15;104096.59;5073306;28;20020;-69
2021/12/18 06:52:34;;;;;;;11.27;1.67;;;;;;;6.08;92.28;104090.78;5073335;28;20383;-69
2021/12/18 06:55:00;;;;;;;5.30;1.73;;;;;;;5.98;92.63;104092.13;5055130;28;20460;-69
2021/12/18 06:57:26;;;;;;;6.18;1.77;;;;;;;5.97;93.50;104091.28;5073760;28;20046;-70
2021/12/18 06:59:51;;;;;;;8.82;1.85;;;;;;;6.15;93.70;104089.53;5073173;28;20459;-68
2021/12/18 07:02:16;;;;;;;9.25;2.10;;;;;;;6.03;93.11;104090.97;5073158;28;20024;-68
2021/12/18 07:04:42;;;;;;;18.25;3.17;;;;;;;6.09;92.89;104087.28;5055219;28;20029;-68
2021/12/18 07:07:08;;;;;;;14.35;2.00;;;;;;;6.19;93.10;104096.19;5073093;28;20111;-68
2021/12/18 07:09:33;;;;;;;8.95;1.88;;;;;;;6.09;92.74;104082.16;5055135;28;20043;-70
2021/12/18 07:11:59;;;;;;;3.28;1.40;;;;;;;6.03;93.06;104098.69;5073285;28;20040;-69
2021/12/18 07:14:24;;;;;;;3.85;1.77;;;;;;;6.09;92.97;104102.69;5072955;28;20487;-69
2021/12/18 07:16:50;;;;;;;4.20;1.70;;;;;;;6.07;92.35;104100.22;5054984;28;20020;-69
2021/12/18 07:19:15;;;;;;;4.40;1.80;;;;;;;6.19;92.55;104093.63;5072923;28;20382;-70
2021/12/18 07:21:40;;;;;;;4.90;2.30;;;;;;;6.09;92.40;104088.09;5073460;28;20475;-69
2021/12/18 07:24:06;;;;;;;8.75;1.75;;;;;;;6.02;92.70;104094.47;5054701;28;20371;-70
2021/12/18 07:26:32;;;;;;;15.25;1.77;;;;;;;6.14;91.60;104095.59;5057325;28;20032;-70
2021/12/18 07:28:58;;;;;;;6.90;1.90;;;;;;;5.91;92.46;104086.44;5058663;28;20027;-69
2021/12/18 07:31:23;;;;;;;38.20;2.38;;;;;;;5.76;92.73;104093.16;5058663;28;20527;-67
2021/12/18 07:33:48;;;;;;;25.27;2.47;;;;;;;5.65;92.76;104093.66;5058373;28;20028;-69
2021/12/18 07:36:14;;;;;;;31.52;2.70;;;;;;;5.69;93.67;104089.19;5076458;28;20020;-69
2021/12/18 07:38:40;;;;;;;30.20;3.15;;;;;;;5.53;93.86;104095.97;5058553;28;20111;-69
2021/12/18 07:41:05;;;;;;;31.23;2.67;;;;;;;5.52;94.43;104094.31;5076397;28;20449;-70
2021/12/18 07:43:31;;;;;;;13.18;2.83;;;;;;;5.70;94.61;104098.56;5058512;28;20020;-69
2021/12/18 07:45:56;;;;;;;4.47;2.08;;;;;;;5.85;93.75;104089.31;5058370;28;20033;-68
2021/12/18 07:48:21;;;;;;;8.98;2.40;;;;;;;5.75;92.89;104088.06;5076184;28;20043;-68
2021/12/18 07:50:47;;;;;;;5.13;2.40;;;;;;;5.93;93.61;104089.78;5058358;28;20029;-69
2021/12/18 07:53:12;;;;;;;6.78;2.10;;;;;;;5.81;92.28;104093.75;5076172;28;20061;-69
2021/12/18 07:55:39;;;;;;;4.25;2.30;;;;;;;5.92;92.60;104087.25;5058139;28;20120;-69
2021/12/18 07:58:04;;;;;;;3.00;1.50;;;;;;;5.85;91.83;104090.13;5076091;28;20405;-68
2021/12/18 08:00:30;;;;;;;3.33;1.73;;;;;;;5.94;92.64;104103.44;5076113;28;20016;-69
2021/12/18 08:02:55;;;;;;;7.13;1.80;;;;;;;6.09;91.35;104100.13;5058155;28;20082;-70
2021/12/18 08:05:21;;;;;;;3.83;1.80;;;;;;;6.03;91.49;104096.13;5075854;28;20028;-69
2021/12/18 08:07:46;;;;;;;4.50;2.35;;;;;;;5.99;91.34;104101.50;5058207;28;20020;-69
2021/12/18 08:10:12;;;;;;;5.88;2.40;;;;;;;5.98;92.30;104094.69;5057960;28;20031;-69
2021/12/18 08:12:37;;;;;;;4.55;2.38;;;;;;;6.02;91.54;104091.91;5057991;28;20047;-69
2021/12/18 08:15:03;;;;;;;3.97;2.08;;;;;;;5.94;90.94;104094.00;5075824;28;20115;-68
2021/12/18 08:17:29;;;;;;;3.65;1.88;;;;;;;5.96;90.81;104089.63;5057765;28;20028;-70
2021/12/18 08:19:54;;;;;;;3.00;1.90;;;;;;;5.88;91.62;104089.16;5075825;28;20103;-70
2021/12/18 08:22:19;;;;;;;5.25;1.70;;;;;;;5.97;90.65;104098.16;5057814;28;20031;-69
2021/12/18 08:24:45;;;;;;;7.03;1.90;;;;;;;6.01;91.39;104090.25;5057811;28;20024;-70
2021/12/18 08:30:33;;;;;;;3.03;2.03;;;;;;;6.05;91.27;104102.03;5075967;28;20570;-70
2021/12/18 08:32:59;;;;;;;2.75;1.80;;;;;;;6.16;90.71;104098.94;5075588;28;20403;-68
2021/12/18 08:35:30;;;;;;;3.10;1.90;;;;;;;6.04;90.94;104102.94;5075324;28;20044;-69
2021/12/18 08:37:57;;;;;;;3.60;1.80;;;;;;;6.21;91.18;104096.94;5074621;28;20032;-69
2021/12/18 08:40:24;;;;;;;5.05;2.00;;;;;;;6.10;90.28;104091.53;5075949;28;20380;-69
2021/12/18 08:42:49;;;;;;;3.90;1.80;;;;;;;6.17;90.84;104090.31;5057388;28;20427;-71
2021/12/18 08:45:15;;;;;;;2.67;1.80;;;;;;;6.07;91.18;104087.38;5075279;28;20024;-68
2021/12/18 08:47:41;;;;;;;2.72;1.70;;;;;;;6.18;90.47;104086.00;5057307;28;20065;-68
2021/12/18 08:50:10;;;;;;;3.22;2.00;;;;;;;6.10;90.85;104088.97;5075139;28;20036;-68
2021/12/18 08:52:35;;;;;;;2.90;1.70;;;;;;;6.18;91.28;104099.66;5057077;28;20032;-69
2021/12/18 08:55:01;;;;;;;2.78;1.60;;;;;;;6.23;90.98;104099.44;5075234;28;20029;-70
2021/12/18 08:57:27;;;;;;;4.90;1.55;;;;;;;6.08;91.04;104101.03;5057297;28;20050;-70
2021/12/18 08:59:53;;;;;;;3.22;1.80;;;;;;;6.10;90.87;104099.22;5058161;28;20020;-69
2021/12/18 09:02:18;;;;;;;3.72;1.55;;;;;;;6.13;91.94;104099.09;5074871;28;20563;-69
2021/12/18 09:04:43;;;;;;;2.08;1.40;;;;;;;6.19;91.03;104091.06;5056947;28;20021;-68
2021/12/18 09:07:09;;;;;;;4.25;1.60;;;;;;;6.16;89.99;104098.06;5075187;28;20031;-71
2021/12/18 09:09:35;;;;;;;1.90;1.30;;;;;;;6.17;89.84;104107.47;5074869;28;20025;-70
2021/12/18 09:12:00;;;;;;;6.57;1.80;;;;;;;5.73;90.85;104088.16;5074774;28;20020;-70
2021/12/18 09:14:25;;;;;;;6.05;1.90;;;;;;;5.97;91.00;104095.59;5074685;28;20024;-69
2021/12/18 09:16:52;;;;;;;2.65;1.40;;;;;;;6.07;90.95;104102.78;5074807;28;20033;-68
2021/12/18 09:19:17;;;;;;;3.17;1.80;;;;;;;5.85;90.23;104100.41;5074495;28;20035;-71
2021/12/18 09:21:43;;;;;;;3.75;1.73;;;;;;;5.95;91.90;104094.84;5056558;28;20464;-70
2021/12/18 09:24:08;;;;;;;3.53;1.88;;;;;;;6.13;91.07;104100.78;5056480;28;20391;-70
2021/12/18 09:26:33;;;;;;;4.07;1.65;;;;;;;6.38;90.39;104106.38;5056454;28;20119;-69
2021/12/18 09:28:59;;;;;;;3.10;1.90;;;;;;;6.46;90.37;104111.13;5074418;28;20518;-69
2021/12/18 09:31:25;;;;;;;15.70;1.92;;;;;;;6.48;89.86;104109.31;5056727;28;20479;-70
2021/12/18 09:33:50;;;;;;;3.78;1.90;;;;;;;6.20;89.91;104105.56;5074132;28;20387;-70
2021/12/18 09:36:16;;;;;;;14.38;2.13;;;;;;;5.94;91.19;104104.28;5074742;28;20021;-70
2021/12/18 09:38:41;;;;;;;4.25;1.90;;;;;;;6.26;91.55;104109.56;5074257;28;20483;-69
2021/12/18 09:41:07;;;;;;;10.30;2.20;;;;;;;6.32;90.10;104109.25;5056202;28;20064;-69
2021/12/18 09:43:33;;;;;;;12.70;2.10;;;;;;;6.15;91.65;104104.94;5056245;28;20040;-70
2021/12/18 09:46:11;;;;;;;14.32;2.20;;;;;;;6.26;91.44;104105.25;5074531;28;20077;-70
2021/12/18 09:48:39;;;;;;;9.93;2.15;;;;;;;6.36;91.58;104102.22;5073908;28;20097;-66
2021/12/18 09:51:09;;;;;;;18.65;2.40;;;;;;;6.46;91.03;104101.66;5073841;28;20529;-67
2021/12/18 09:53:36;;;;;;;9.65;2.25;;;;;;;6.57;90.54;104108.00;5074007;28;20020;-68
2021/12/18 09:56:04;;;;;;;8.60;2.28;;;;;;;6.58;90.64;104100.22;5073786;28;20384;-67
2021/12/18 09:58:29;;;;;;;12.05;3.95;;;;;;;6.64;90.52;104102.44;5073824;28;20071;-66
2021/12/18 10:00:55;;;;;;;4.55;2.38;;;;;;;6.67;90.30;104097.16;5055919;28;20384;-67
2021/12/18 10:03:20;;;;;;;11.02;2.42;;;;;;;6.70;89.99;104101.31;5073733;28;20533;-68
2021/12/18 10:05:46;;;;;;;3.28;1.80;;;;;;;6.73;89.93;104098.56;5055703;28;20031;-67
2021/12/18 10:08:15;;;;;;;4.55;1.70;;;;;;;6.67;89.32;104096.31;5073469;28;20047;-66
2021/12/18 10:11:08;;;;;;;6.63;1.90;;;;;;;6.46;90.36;104100.84;5073753;28;20499;-67
2021/12/18 10:13:55;;;;;;;2.78;1.60;;;;;;;6.59;90.50;104090.75;5073649;28;20021;-67
2021/12/18 10:16:22;;;;;;;3.65;2.20;;;;;;;6.71;89.66;104090.13;5073502;28;20429;-66
2021/12/18 10:18:49;;;;;;;3.75;2.28;;;;;;;6.67;89.88;104086.03;5073968;28;20543;-70
2021/12/18 10:21:21;;;;;;;7.70;2.35;;;;;;;6.62;90.01;104096.59;5074117;28;20051;-66
2021/12/18 10:23:49;;;;;;;10.25;1.70;;;;;;;6.50;89.74;104092.06;5073424;28;20020;-66
2021/12/18 10:26:35;;;;;;;2.65;1.60;;;;;;;6.30;90.16;104090.50;5073436;28;20028;-67
2021/12/18 10:29:00;;;;;;;3.05;1.40;;;;;;;6.68;89.99;104074.88;5073702;28;20107;-67
2021/12/18 10:31:43;;;;;;;2.90;1.50;;;;;;;6.54;88.49;104075.59;5073380;28;20017;-66
2021/12/18 10:34:21;;;;;;;3.67;1.50;;;;;;;6.11;90.78;104075.22;5073607;28;20117;-66
2021/12/18 10:37:12;;;;;;;4.47;1.52;;;;;;;5.62;91.93;104083.53;5055168;28;20166;-67
2021/12/18 10:39:44;;;;;;;2.85;1.50;;;;;;;5.80;91.55;104078.41;5055307;28;20021;-66
2021/12/18 10:42:24;;;;;;;2.17;1.50;;;;;;;6.05;91.19;104078.91;5055280;28;20020;-65
2021/12/18 10:45:07;;;;;;;2.00;1.20;;;;;;;6.36;89.79;104079.94;5055340;28;20282;-68
2021/12/18 10:47:48;;;;;;;3.22;1.58;;;;;;;6.72;89.11;104069.47;5073353;28;20027;-67
2021/12/18 10:50:19;;;;;;;3.00;1.25;;;;;;;6.54;88.74;104078.16;5073243;28;20387;-67
2021/12/18 10:52:45;;;;;;;2.78;1.55;;;;;;;6.76;89.42;104067.56;5055158;28;20060;-66
2021/12/18 10:55:10;;;;;;;10.80;5.82;;;;;;;6.50;89.13;104068.94;5073113;28;20055;-66
2021/12/18 10:57:36;;;;;;;16.00;4.70;;;;;;;6.67;89.63;104074.03;5073012;28;20096;-68
2021/12/18 11:00:04;;;;;;;3.95;2.00;;;;;;;6.74;88.57;104067.66;5073140;28;20020;-68
2021/12/18 11:02:29;;;;;;;3.97;1.90;;;;;;;6.97;88.33;104063.03;5058980;28;20070;-66
2021/12/18 11:05:13;;;;;;;4.13;2.00;;;;;;;6.51;88.50;104068.03;5059107;28;20024;-67
2021/12/18 11:07:42;;;;;;;4.57;2.28;;;;;;;6.28;90.94;104067.47;5077118;28;20032;-67
2021/12/18 11:10:41;;;;;;;6.30;2.30;;;;;;;6.27;91.32;104060.69;5078150;28;20025;-70
2021/12/18 11:15:51;;;;;;;4.07;2.00;;;;;;;6.88;89.74;104056.66;5077633;28;20028;-67
2021/12/18 11:18:19;;;;;;;3.97;2.17;;;;;;;7.07;88.43;104056.47;5077087;28;20376;-67
2021/12/18 11:20:48;;;;;;;4.95;2.45;;;;;;;6.91;88.50;104050.50;5076883;28;20451;-66
2021/12/18 11:23:14;;;;;;;4.03;2.10;;;;;;;6.96;88.05;104046.78;5059411;28;20123;-67
2021/12/18 11:25:41;;;;;;;4.50;2.28;;;;;;;7.14;88.46;104044.94;5076682;28;20024;-66
2021/12/18 11:28:08;;;;;;;5.60;2.53;;;;;;;7.01;88.12;104056.81;5058748;28;20020;-66
2021/12/18 11:30:34;;;;;;;6.25;2.40;;;;;;;7.06;88.73;104049.69;5076714;28;20052;-67
2021/12/18 11:33:00;;;;;;;4.57;2.53;;;;;;;7.18;87.34;104036.13;5076489;28;20055;-67
2021/12/18 11:35:27;;;;;;;5.07;2.40;;;;;;;7.27;87.87;104034.78;5076507;28;20044;-72
2021/12/18 11:38:08;;;;;;;4.10;2.20;;;;;;;7.29;85.90;104032.16;5058525;28;20025;-66
2021/12/18 11:40:39;;;;;;;3.08;1.92;;;;;;;7.30;86.69;104037.19;5076422;28;20027;-68
2021/12/18 11:43:08;;;;;;;4.90;2.50;;;;;;;7.38;86.57;104034.19;5076326;28;20021;-67
2021/12/18 11:45:36;;;;;;;3.65;2.30;;;;;;;7.12;86.80;104033.09;5076054;28;20118;-67
2021/12/18 11:48:03;;;;;;;3.53;1.90;;;;;;;7.23;87.61;104033.31;5076814;28;20017;-67
2021/12/18 11:50:39;;;;;;;3.25;2.10;;;;;;;7.45;87.10;104020.91;5076218;28;20043;-67
2021/12/18 11:53:14;;;;;;;6.03;2.40;;;;;;;7.38;86.87;104021.34;5076658;28;20020;-67
2021/12/18 11:55:49;;;;;;;4.07;2.40;;;;;;;7.49;88.01;104019.00;5076007;28;20479;-68
2021/12/18 11:58:27;;;;;;;6.20;2.38;;;;;;;7.38;88.47;104018.75;5057870;28;20020;-70
2021/12/18 12:00:59;;;;;;;4.70;2.30;;;;;;;7.35;88.22;104018.94;5058042;28;20029;-67
2021/12/18 12:03:27;;;;;;;3.63;2.40;;;;;;;7.28;89.13;104015.88;5057985;28;20016;-66
2021/12/18 12:05:55;;;;;;;5.88;2.45;;;;;;;7.45;89.43;104014.91;5058673;28;20454;-68
2021/12/18 12:08:29;;;;;;;4.18;2.40;;;;;;;7.54;88.52;104019.56;5075838;28;20063;-67
2021/12/18 12:11:25;;;;;;;4.20;2.00;;;;;;;7.06;88.46;104016.25;5075952;28;20048;-67
2021/12/18 12:14:06;;;;;;;4.30;2.28;;;;;;;7.50;88.66;104015.50;5073744;28;20043;-68
2021/12/18 12:16:46;;;;;;;3.47;2.20;;;;;;;7.65;87.86;104014.63;5075642;28;20074;-68
2021/12/18 12:19:31;;;;;;;4.13;2.35;;;;;;;7.80;87.66;104012.09;5057562;28;20051;-67
2021/12/18 12:21:57;;;;;;;4.85;2.20;;;;;;;7.81;86.82;104006.81;5075868;28;20024;-66
2021/12/18 12:24:27;;;;;;;4.50;2.60;;;;;;;7.77;86.86;104012.22;5075543;28;20352;-68